Time;durP1;ratioP1;P1;durP2;ratioP2;P2;SDS_P1;SDS_P2;PMS_P1;PMS_P2;Temp;Humidity;BMP_temperature;BMP_pressure;BME280_temperature;BME280_humidity;BME280_pressure;Samples;Min_cycle;Max_cycle;Signal;HPM_P1;HPM_P2
2021/09/17 00:00:55;;;;;;;8.55;4.13;;;17.00;99.90;;;;;;5091892;28;20036;-70
2021/09/17 00:03:21;;;;;;;5.50;4.15;;;16.90;99.90;;;;;;5092949;28;20515;-70
2021/09/17 00:05:47;;;;;;;8.68;4.72;;;16.90;99.90;;;;;;5091898;28;20040;-72
2021/09/17 00:08:13;;;;;;;4.82;4.07;;;16.90;99.90;;;;;;5091376;28;20084;-70
2021/09/17 00:10:39;;;;;;;10.73;4.53;;;16.90;99.90;;;;;;5092150;28;20334;-71
2021/09/17 00:13:05;;;;;;;9.45;4.93;;;16.90;99.90;;;;;;5092432;28;20020;-70
2021/09/17 00:15:31;;;;;;;6.60;5.32;;;16.90;99.90;;;;;;5092581;28;20081;-74
2021/09/17 00:17:56;;;;;;;8.80;5.22;;;16.80;99.90;;;;;;5092565;28;20024;-71
2021/09/17 00:20:22;;;;;;;7.15;4.80;;;16.80;99.90;;;;;;5092550;28;20031;-70
2021/09/17 00:22:48;;;;;;;8.50;5.20;;;16.80;99.90;;;;;;5091558;28;20131;-71
2021/09/17 00:25:14;;;;;;;5.63;4.30;;;16.70;99.90;;;;;;5091211;28;20522;-72
2021/09/17 00:27:40;;;;;;;7.90;5.38;;;16.70;99.90;;;;;;5092172;28;20039;-72
2021/09/17 00:30:07;;;;;;;9.65;5.20;;;16.60;99.90;;;;;;5092394;28;20028;-71
2021/09/17 00:32:33;;;;;;;7.75;5.60;;;16.60;99.90;;;;;;5091768;28;20033;-72
2021/09/17 00:34:58;;;;;;;12.80;5.05;;;16.60;99.90;;;;;;5092389;28;20035;-71
2021/09/17 00:37:24;;;;;;;9.68;4.93;;;16.60;99.90;;;;;;5091152;28;20028;-72
2021/09/17 00:39:50;;;;;;;9.00;5.72;;;16.50;99.90;;;;;;5092097;28;20092;-71
2021/09/17 00:42:15;;;;;;;10.60;4.80;;;16.50;99.90;;;;;;5092618;28;20402;-72
2021/09/17 00:44:41;;;;;;;6.93;4.90;;;16.40;99.90;;;;;;5091320;28;20036;-72
2021/09/17 00:47:07;;;;;;;5.93;4.93;;;16.50;99.90;;;;;;5090986;28;20028;-72
2021/09/17 00:49:33;;;;;;;8.10;5.60;;;16.50;99.90;;;;;;5091840;28;20024;-74
2021/09/17 00:51:59;;;;;;;11.95;5.88;;;16.40;99.90;;;;;;5092090;28;20027;-72
2021/09/17 00:54:25;;;;;;;6.65;5.95;;;16.40;99.90;;;;;;5092044;28;20040;-72
2021/09/17 00:56:52;;;;;;;7.38;5.55;;;16.40;99.90;;;;;;5091031;28;20441;-73
2021/09/17 00:59:18;;;;;;;6.43;5.82;;;16.30;99.90;;;;;;5090605;28;20024;-72
2021/09/17 01:01:44;;;;;;;7.97;5.65;;;16.30;99.90;;;;;;5090464;28;20030;-72
2021/09/17 01:04:10;;;;;;;8.90;6.13;;;16.30;99.90;;;;;;5090567;28;20035;-72
2021/09/17 01:06:37;;;;;;;9.30;5.72;;;16.30;99.90;;;;;;5090187;28;20031;-72
2021/09/17 01:09:04;;;;;;;6.50;5.82;;;16.30;99.90;;;;;;5092130;28;20024;-72
2021/09/17 01:11:30;;;;;;;5.80;5.22;;;16.30;99.90;;;;;;5091836;28;20028;-72
2021/09/17 01:13:56;;;;;;;6.03;5.10;;;16.30;99.90;;;;;;5089744;28;20339;-72
2021/09/17 01:16:22;;;;;;;5.72;3.88;;;16.30;99.90;;;;;;5091430;28;20039;-72
2021/09/17 01:18:50;;;;;;;6.55;4.35;;;16.40;99.90;;;;;;5089809;28;20032;-72
2021/09/17 01:21:16;;;;;;;6.38;4.57;;;16.30;99.90;;;;;;5090193;28;20042;-72
2021/09/17 01:23:41;;;;;;;6.93;5.40;;;16.30;99.90;;;;;;5090567;28;20048;-72
2021/09/17 01:26:07;;;;;;;7.43;4.70;;;16.30;99.90;;;;;;5089591;28;20048;-72
2021/09/17 01:28:33;;;;;;;5.72;4.65;;;16.30;99.90;;;;;;5091306;28;20096;-72
2021/09/17 01:31:00;;;;;;;10.23;5.65;;;16.40;99.90;;;;;;5089521;28;20477;-72
2021/09/17 01:33:26;;;;;;;13.00;5.70;;;16.30;99.90;;;;;;5091493;28;20024;-72
2021/09/17 01:36:00;;;;;;;8.43;5.22;;;16.40;99.90;;;;;;5089163;28;20168;-71
2021/09/17 01:38:28;;;;;;;6.43;5.57;;;16.40;99.90;;;;;;5089942;28;20084;-72
2021/09/17 01:40:54;;;;;;;6.88;5.05;;;16.40;99.90;;;;;;5090470;28;20129;-73
2021/09/17 01:43:20;;;;;;;9.63;6.07;;;16.40;99.90;;;;;;5091047;28;20138;-72
2021/09/17 01:45:46;;;;;;;13.70;5.95;;;16.40;99.90;;;;;;5090516;28;20028;-71
2021/09/17 01:48:11;;;;;;;9.80;5.97;;;16.40;99.90;;;;;;5091051;28;20020;-72
2021/09/17 01:50:37;;;;;;;7.30;5.47;;;16.20;99.90;;;;;;5090517;28;20546;-73
2021/09/17 01:53:02;;;;;;;6.93;6.00;;;16.20;99.90;;;;;;5089530;28;20030;-72
2021/09/17 01:55:28;;;;;;;15.88;8.25;;;16.20;99.90;;;;;;5089848;28;20036;-72
2021/09/17 01:57:54;;;;;;;10.10;7.07;;;16.10;99.90;;;;;;5090448;28;20031;-72
2021/09/17 02:00:19;;;;;;;11.57;6.25;;;16.20;99.90;;;;;;5089747;28;20024;-71
2021/09/17 02:02:46;;;;;;;7.78;5.90;;;16.20;99.90;;;;;;5090361;28;20027;-71
2021/09/17 02:05:12;;;;;;;7.30;5.82;;;16.30;99.90;;;;;;5090480;28;20040;-71
2021/09/17 02:07:38;;;;;;;9.07;6.07;;;16.20;99.90;;;;;;5090584;28;20024;-73
2021/09/17 02:10:05;;;;;;;8.73;6.13;;;16.20;99.90;;;;;;5090805;28;20032;-71
2021/09/17 02:12:30;;;;;;;7.68;5.15;;;16.20;99.90;;;;;;5091314;28;20042;-72
2021/09/17 02:14:56;;;;;;;7.68;6.43;;;16.20;99.90;;;;;;5094193;28;20111;-73
2021/09/17 02:17:23;;;;;;;10.43;6.93;;;16.10;99.90;;;;;;5093619;28;20480;-71
2021/09/17 02:19:49;;;;;;;8.77;6.28;;;16.20;99.90;;;;;;5094247;28;20099;-72
2021/09/17 02:22:14;;;;;;;9.60;6.05;;;16.10;99.90;;;;;;5094802;28;20059;-72
2021/09/17 02:24:40;;;;;;;8.30;5.90;;;16.10;99.90;;;;;;5094033;28;20558;-72
2021/09/17 02:27:06;;;;;;;5.85;5.13;;;16.10;99.90;;;;;;5095346;28;20173;-73
2021/09/17 02:29:32;;;;;;;6.65;5.82;;;16.00;99.90;;;;;;5093545;28;20028;-72
2021/09/17 02:31:58;;;;;;;8.43;5.20;;;16.10;99.90;;;;;;5094076;28;20035;-72
2021/09/17 02:34:23;;;;;;;8.13;5.68;;;16.00;99.90;;;;;;5094429;28;20040;-72
2021/09/17 02:36:49;;;;;;;10.50;6.15;;;16.00;99.90;;;;;;5094134;28;20024;-73
2021/09/17 02:39:15;;;;;;;7.88;5.80;;;15.90;99.90;;;;;;5093201;28;20028;-72
2021/09/17 02:41:42;;;;;;;13.45;6.10;;;15.90;99.90;;;;;;5092562;28;20480;-73
2021/09/17 02:44:07;;;;;;;7.43;5.03;;;15.90;99.90;;;;;;5094331;28;20036;-73
2021/09/17 02:46:33;;;;;;;8.10;6.13;;;15.90;99.90;;;;;;5092952;28;20024;-72
2021/09/17 02:48:59;;;;;;;8.27;5.95;;;15.90;99.90;;;;;;5094200;28;20555;-72
2021/09/17 02:51:25;;;;;;;7.95;6.30;;;15.90;99.90;;;;;;5092901;28;20393;-72
2021/09/17 02:53:51;;;;;;;12.48;7.13;;;15.90;99.90;;;;;;5093356;28;20020;-72
2021/09/17 02:56:16;;;;;;;7.15;6.10;;;15.80;99.90;;;;;;5092760;28;20350;-72
2021/09/17 02:58:42;;;;;;;12.15;6.03;;;15.80;99.90;;;;;;5093299;28;20034;-72
2021/09/17 03:01:08;;;;;;;8.90;5.70;;;15.90;99.90;;;;;;5093865;28;20067;-72
2021/09/17 03:03:33;;;;;;;7.88;5.75;;;16.00;99.90;;;;;;5093963;28;20190;-73
2021/09/17 03:05:59;;;;;;;8.35;6.55;;;15.90;99.90;;;;;;5091809;28;20039;-73
2021/09/17 03:08:25;;;;;;;11.95;7.35;;;15.90;99.90;;;;;;5083442;28;20123;-73
2021/09/17 03:10:56;;;;;;;9.13;6.13;;;15.80;99.90;;;;;;5074654;28;20095;-73
2021/09/17 03:13:22;;;;;;;7.38;6.65;;;15.80;99.90;;;;;;5074602;28;20028;-73
2021/09/17 03:15:47;;;;;;;12.65;6.57;;;15.80;99.90;;;;;;5073438;28;20563;-73
2021/09/17 03:18:13;;;;;;;8.25;6.30;;;15.80;99.90;;;;;;5072304;28;20093;-73
2021/09/17 03:20:38;;;;;;;8.15;6.10;;;15.70;99.90;;;;;;5073357;28;20024;-72
2021/09/17 03:23:04;;;;;;;11.23;8.55;;;15.70;99.90;;;;;;5073166;28;20370;-72
2021/09/17 03:25:29;;;;;;;11.55;7.38;;;15.60;99.90;;;;;;5072364;28;20122;-73
2021/09/17 03:27:55;;;;;;;8.10;7.30;;;15.60;99.90;;;;;;5073013;28;20033;-71
2021/09/17 03:30:21;;;;;;;7.22;6.50;;;15.60;99.90;;;;;;5071786;28;20035;-72
2021/09/17 03:32:47;;;;;;;9.98;7.70;;;15.50;99.90;;;;;;5071577;28;20129;-72
2021/09/17 03:35:12;;;;;;;9.73;7.30;;;15.40;99.90;;;;;;5073391;28;20055;-72
2021/09/17 03:37:38;;;;;;;10.40;6.82;;;15.50;99.90;;;;;;5071880;28;20392;-71
2021/09/17 03:40:04;;;;;;;8.05;7.07;;;15.50;99.90;;;;;;5072424;28;20082;-72
2021/09/17 03:42:30;;;;;;;6.75;6.10;;;15.50;99.90;;;;;;5073226;28;20020;-71
2021/09/17 03:44:56;;;;;;;12.45;7.13;;;15.50;99.90;;;;;;5072580;28;20040;-72
2021/09/17 03:47:22;;;;;;;8.55;6.63;;;15.50;99.90;;;;;;5073344;28;20044;-72
2021/09/17 03:49:47;;;;;;;9.82;6.28;;;15.60;99.90;;;;;;5071186;28;20025;-72
2021/09/17 03:52:13;;;;;;;9.57;6.43;;;15.50;99.90;;;;;;5072994;28;20371;-72
2021/09/17 03:54:38;;;;;;;9.60;6.20;;;15.50;99.90;;;;;;5071373;28;20067;-73
2021/09/17 03:57:04;;;;;;;7.53;5.93;;;15.50;99.90;;;;;;5070997;28;20071;-73
2021/09/17 03:59:30;;;;;;;9.82;5.50;;;15.50;99.90;;;;;;5071711;28;20453;-73
2021/09/17 04:02:00;;;;;;;9.02;6.32;;;15.60;99.90;;;;;;5070896;28;20020;-73
2021/09/17 04:04:26;;;;;;;13.82;6.82;;;15.50;99.90;;;;;;5071306;28;20028;-72
2021/09/17 04:06:52;;;;;;;9.27;6.28;;;15.50;99.90;;;;;;5071873;28;20033;-73
2021/09/17 04:09:18;;;;;;;7.47;6.15;;;15.40;99.90;;;;;;5071489;28;20024;-73
2021/09/17 04:11:44;;;;;;;9.65;6.70;;;15.40;99.90;;;;;;5071109;28;20525;-73
2021/09/17 04:14:10;;;;;;;10.77;6.90;;;15.40;99.90;;;;;;5072730;28;20028;-72
2021/09/17 04:16:36;;;;;;;14.43;7.63;;;15.40;99.90;;;;;;5071300;28;20028;-72
2021/09/17 04:19:02;;;;;;;12.68;7.03;;;15.50;99.90;;;;;;5070620;28;20024;-71
2021/09/17 04:21:28;;;;;;;8.07;7.22;;;15.40;99.90;;;;;;5072434;28;20032;-71
2021/09/17 04:23:53;;;;;;;10.27;7.63;;;15.40;99.90;;;;;;5071661;28;20482;-72
2021/09/17 04:26:20;;;;;;;9.88;7.95;;;15.40;99.90;;;;;;5072259;28;20036;-72
2021/09/17 04:28:45;;;;;;;11.52;8.82;;;15.40;99.90;;;;;;5070857;28;20042;-72
2021/09/17 04:31:11;;;;;;;14.13;7.57;;;15.40;99.90;;;;;;5070495;28;20116;-74
2021/09/17 04:33:37;;;;;;;9.00;7.45;;;15.40;99.90;;;;;;5071855;28;20028;-73
2021/09/17 04:36:02;;;;;;;11.52;7.38;;;15.40;99.90;;;;;;5071389;28;20035;-72
2021/09/17 04:38:28;;;;;;;8.63;7.05;;;15.50;99.90;;;;;;5070890;28;20024;-72
2021/09/17 04:40:54;;;;;;;11.30;8.10;;;15.50;99.90;;;;;;5070757;28;20455;-72
2021/09/17 04:43:19;;;;;;;15.65;8.50;;;15.40;99.90;;;;;;5071710;28;20029;-73
2021/09/17 04:45:45;;;;;;;12.68;7.35;;;15.40;99.90;;;;;;5070415;28;20166;-72
2021/09/17 04:48:12;;;;;;;10.27;7.25;;;15.40;99.90;;;;;;5071000;28;20047;-73
2021/09/17 04:50:39;;;;;;;11.93;7.63;;;15.50;99.90;;;;;;5071780;28;20024;-72
2021/09/17 04:53:04;;;;;;;11.43;7.10;;;15.40;99.90;;;;;;5070926;28;20033;-73
2021/09/17 04:55:30;;;;;;;9.70;7.00;;;15.50;99.90;;;;;;5071815;28;20044;-72
2021/09/17 04:57:56;;;;;;;8.60;7.20;;;15.60;99.90;;;;;;5070952;28;20106;-72
2021/09/17 05:00:22;;;;;;;11.27;8.00;;;15.60;99.90;;;;;;5070371;28;20385;-71
2021/09/17 05:02:47;;;;;;;12.45;8.38;;;15.60;99.90;;;;;;5070258;28;20127;-72
2021/09/17 05:05:13;;;;;;;9.73;7.47;;;15.50;99.90;;;;;;5071649;28;20036;-73
2021/09/17 05:07:39;;;;;;;11.73;8.13;;;15.50;99.90;;;;;;5071453;28;20415;-73
2021/09/17 05:10:05;;;;;;;11.27;7.88;;;15.60;99.90;;;;;;5069610;28;20032;-73
2021/09/17 05:12:30;;;;;;;8.32;7.20;;;15.50;99.90;;;;;;5072067;28;20034;-73
2021/09/17 05:14:57;;;;;;;9.35;7.90;;;15.50;99.90;;;;;;5070861;28;20028;-74
2021/09/17 05:17:23;;;;;;;12.75;8.40;;;15.50;99.90;;;;;;5069897;28;20040;-72
2021/09/17 05:19:49;;;;;;;11.45;7.85;;;15.40;99.90;;;;;;5069822;28;20029;-74
2021/09/17 05:22:14;;;;;;;9.57;8.65;;;15.40;99.90;;;;;;5069885;28;20115;-72
2021/09/17 05:24:40;;;;;;;11.05;8.00;;;15.30;99.90;;;;;;5070691;28;20409;-73
2021/09/17 05:27:12;;;;;;;10.10;8.50;;;15.20;99.90;;;;;;5069172;28;20020;-72
2021/09/17 05:29:38;;;;;;;10.48;8.75;;;15.20;99.90;;;;;;5069566;28;20381;-72
2021/09/17 05:32:04;;;;;;;17.77;9.55;;;15.30;99.90;;;;;;5070003;28;20064;-73
2021/09/17 05:34:29;;;;;;;12.77;8.68;;;15.30;99.90;;;;;;5071351;28;20037;-72
2021/09/17 05:36:55;;;;;;;11.90;8.73;;;15.30;99.90;;;;;;5070178;28;20025;-73
2021/09/17 05:39:21;;;;;;;13.68;9.40;;;15.30;99.90;;;;;;5069498;28;20035;-73
2021/09/17 05:41:46;;;;;;;13.50;9.02;;;15.30;99.90;;;;;;5069261;28;20029;-72
2021/09/17 05:44:12;;;;;;;11.43;8.02;;;15.30;99.90;;;;;;5070375;28;20025;-72
2021/09/17 05:46:38;;;;;;;12.48;8.45;;;15.40;99.90;;;;;;5069090;28;20107;-72
2021/09/17 05:49:03;;;;;;;10.38;8.75;;;15.40;99.90;;;;;;5069403;28;20040;-72
2021/09/17 05:51:29;;;;;;;11.43;7.88;;;15.40;99.90;;;;;;5070204;28;20027;-72
2021/09/17 05:53:55;;;;;;;10.40;7.88;;;15.50;99.90;;;;;;5069895;28;20041;-72
2021/09/17 05:56:20;;;;;;;11.43;9.38;;;15.60;99.90;;;;;;5069416;28;20036;-72
2021/09/17 05:58:46;;;;;;;17.63;8.65;;;15.60;99.90;;;;;;5069193;28;20024;-73
2021/09/17 06:01:12;;;;;;;14.68;7.82;;;15.80;99.90;;;;;;5068585;28;20032;-73
2021/09/17 06:03:39;;;;;;;12.13;8.70;;;15.90;99.90;;;;;;5069428;28;20406;-73
2021/09/17 06:06:05;;;;;;;9.13;8.10;;;15.90;99.90;;;;;;5052309;28;20391;-73
2021/09/17 06:08:30;;;;;;;11.52;8.30;;;15.90;99.90;;;;;;5070332;28;20366;-73
2021/09/17 06:10:56;;;;;;;8.18;7.38;;;15.80;99.90;;;;;;5068708;28;20476;-72
2021/09/17 06:13:22;;;;;;;12.90;7.18;;;15.90;99.90;;;;;;5077484;28;20161;-70
2021/09/17 06:15:47;;;;;;;8.93;6.63;;;16.10;99.90;;;;;;5086603;28;20032;-70
2021/09/17 06:18:13;;;;;;;15.30;5.07;;;16.10;99.90;;;;;;5089742;28;20387;-65
2021/09/17 06:20:39;;;;;;;10.77;3.83;;;16.50;99.90;;;;;;5090443;28;20016;-64
2021/09/17 06:23:04;;;;;;;9.40;3.90;;;17.80;99.90;;;;;;5087965;28;20036;-64
2021/09/17 06:25:30;;;;;;;8.43;4.90;;;18.30;99.90;;;;;;5090569;28;20155;-64
2021/09/17 06:27:56;;;;;;;13.18;5.43;;;18.70;99.90;;;;;;5088296;28;20077;-64
2021/09/17 06:30:23;;;;;;;7.28;3.60;;;18.80;99.90;;;;;;5087125;28;20028;-65
2021/09/17 06:32:48;;;;;;;11.32;7.50;;;19.00;99.90;;;;;;5086530;28;20036;-74
2021/09/17 06:35:14;;;;;;;11.40;6.13;;;18.40;99.90;;;;;;5073736;28;20043;-73
2021/09/17 06:37:51;;;;;;;17.58;6.85;;;17.80;99.90;;;;;;5077805;28;20029;-74
2021/09/17 06:40:19;;;;;;;8.73;5.60;;;17.60;99.90;;;;;;5069388;28;20093;-74
2021/09/17 06:42:45;;;;;;;14.73;6.65;;;17.60;99.90;;;;;;5069723;28;20020;-73
2021/09/17 06:45:11;;;;;;;15.57;6.00;;;17.40;99.90;;;;;;5067719;28;20072;-73
2021/09/17 06:47:54;;;;;;;12.45;6.63;;;17.40;99.90;;;;;;5070264;28;20100;-73
2021/09/17 06:50:22;;;;;;;16.20;7.78;;;17.40;99.90;;;;;;5069646;28;20094;-73
2021/09/17 06:52:50;;;;;;;16.88;7.75;;;17.00;99.90;;;;;;5071689;28;20082;-72
2021/09/17 06:55:17;;;;;;;14.40;7.53;;;16.70;99.90;;;;;;5087163;28;20131;-71
2021/09/17 06:57:48;;;;;;;14.88;8.60;;;16.90;99.90;;;;;;5087745;28;20032;-47
2021/09/17 07:00:15;;;;;;;15.13;6.97;;;16.80;99.90;;;;;;5090043;28;20416;-47
2021/09/17 07:02:41;;;;;;;12.32;5.68;;;17.20;99.90;;;;;;5093907;28;20036;-49
2021/09/17 07:05:07;;;;;;;6.30;4.85;;;17.60;99.90;;;;;;5093858;28;20028;-48
2021/09/17 07:07:33;;;;;;;15.52;7.15;;;18.00;99.90;;;;;;5097640;28;20035;-47
2021/09/17 07:09:58;;;;;;;9.65;7.30;;;17.90;99.90;;;;;;5113180;28;20107;-71
2021/09/17 07:12:24;;;;;;;13.77;6.90;;;18.20;99.90;;;;;;5105222;28;20054;-72
2021/09/17 07:14:49;;;;;;;18.90;8.27;;;17.80;99.90;;;;;;5112711;28;20027;-70
2021/09/17 07:17:15;;;;;;;13.48;8.18;;;17.40;99.90;;;;;;5113197;28;20238;-71
2021/09/17 07:19:41;;;;;;;13.00;8.32;;;17.30;99.90;;;;;;5109652;28;20109;-71
2021/09/17 07:22:07;;;;;;;17.00;8.93;;;17.40;99.90;;;;;;5092174;28;20363;-71
2021/09/17 07:24:33;;;;;;;13.43;7.35;;;17.40;99.90;;;;;;5093248;28;20052;-70
2021/09/17 07:26:58;;;;;;;13.75;7.47;;;17.40;99.90;;;;;;5091180;28;20031;-72
2021/09/17 07:29:24;;;;;;;30.17;7.50;;;17.60;99.90;;;;;;5092793;28;20028;-70
2021/09/17 07:31:49;;;;;;;17.35;7.45;;;17.70;99.90;;;;;;5091670;28;20024;-71
2021/09/17 07:34:15;;;;;;;11.75;7.38;;;17.70;99.90;;;;;;5092215;28;20031;-71
2021/09/17 07:36:41;;;;;;;10.18;6.43;;;17.60;99.90;;;;;;5092909;28;20027;-71
2021/09/17 07:39:09;;;;;;;9.82;6.50;;;17.70;99.90;;;;;;5091147;28;20122;-71
2021/09/17 07:41:35;;;;;;;15.30;6.43;;;17.80;99.90;;;;;;5093350;28;20134;-71
2021/09/17 07:44:01;;;;;;;18.77;7.43;;;17.90;99.90;;;;;;5092470;28;20081;-71
2021/09/17 07:46:27;;;;;;;13.60;7.00;;;18.10;99.90;;;;;;5092481;28;20146;-70
2021/09/17 07:48:52;;;;;;;13.68;7.07;;;18.20;99.90;;;;;;5091537;28;20087;-71
2021/09/17 07:51:18;;;;;;;13.43;8.57;;;18.00;99.90;;;;;;5092583;28;20054;-71
2021/09/17 07:53:43;;;;;;;11.02;7.32;;;17.80;99.90;;;;;;5091263;28;20377;-70
2021/09/17 07:56:09;;;;;;;19.25;7.72;;;17.80;99.90;;;;;;5090881;28;20114;-72
2021/09/17 07:58:35;;;;;;;14.05;8.80;;;17.80;99.90;;;;;;5092889;28;20381;-72
2021/09/17 08:01:01;;;;;;;11.23;8.45;;;17.90;99.90;;;;;;5091904;28;20423;-71
2021/09/17 08:03:30;;;;;;;10.27;7.93;;;17.80;99.90;;;;;;5091636;28;20527;-71
2021/09/17 08:05:56;;;;;;;16.80;9.35;;;17.90;99.90;;;;;;5092491;28;20024;-71
2021/09/17 08:08:21;;;;;;;11.57;9.00;;;18.00;99.90;;;;;;5090454;28;20111;-70
2021/09/17 08:10:47;;;;;;;18.23;10.27;;;18.10;99.90;;;;;;5090296;28;20124;-70
2021/09/17 08:13:13;;;;;;;19.30;11.07;;;18.00;99.90;;;;;;5090414;28;20035;-71
2021/09/17 08:15:38;;;;;;;12.23;10.55;;;18.00;99.90;;;;;;5091035;28;20446;-70
2021/09/17 08:18:04;;;;;;;15.02;8.55;;;18.00;99.90;;;;;;5090214;28;20032;-71
2021/09/17 08:20:30;;;;;;;14.50;8.85;;;18.00;99.90;;;;;;5092212;28;20134;-71
2021/09/17 08:22:56;;;;;;;16.38;9.07;;;18.10;99.90;;;;;;5090545;28;20412;-71
2021/09/17 08:25:22;;;;;;;11.57;7.63;;;18.40;99.90;;;;;;5090927;28;20354;-71
2021/09/17 08:27:47;;;;;;;13.68;8.18;;;18.70;99.90;;;;;;5090399;28;20062;-71
2021/09/17 08:30:13;;;;;;;13.75;7.93;;;19.00;99.90;;;;;;5091217;28;20111;-71
2021/09/17 08:32:39;;;;;;;19.83;8.45;;;19.20;99.90;;;;;;5090335;28;20020;-70
2021/09/17 08:35:09;;;;;;;17.70;8.98;;;19.40;99.90;;;;;;5091118;28;20032;-71
2021/09/17 08:37:35;;;;;;;16.20;9.95;;;19.50;99.90;;;;;;5091779;28;20036;-71
2021/09/17 08:40:02;;;;;;;12.07;9.15;;;19.30;99.90;;;;;;5091134;28;20477;-76
2021/09/17 08:42:28;;;;;;;19.00;10.23;;;19.40;99.90;;;;;;5090326;28;20032;-70
2021/09/17 08:44:54;;;;;;;13.52;10.27;;;19.30;99.90;;;;;;5091905;28;20460;-70
2021/09/17 08:47:20;;;;;;;17.08;10.43;;;19.20;99.90;;;;;;5089523;28;20063;-72
2021/09/17 08:49:46;;;;;;;14.50;10.43;;;19.20;99.90;;;;;;5092062;28;20059;-70
2021/09/17 08:52:12;;;;;;;13.15;9.90;;;19.00;99.90;;;;;;5089411;28;20062;-72
2021/09/17 08:54:38;;;;;;;18.35;10.82;;;19.20;99.90;;;;;;5090065;28;20038;-73
2021/09/17 08:57:04;;;;;;;16.48;10.73;;;19.10;99.90;;;;;;5089045;28;20411;-71
2021/09/17 08:59:30;;;;;;;14.05;9.32;;;19.20;99.90;;;;;;5090135;28;20028;-71
2021/09/17 09:01:55;;;;;;;17.70;11.52;;;19.30;99.90;;;;;;5091372;28;20458;-71
2021/09/17 09:04:31;;;;;;;19.40;12.45;;;19.30;99.90;;;;;;5085631;28;20028;-71
2021/09/17 09:07:04;;;;;;;14.35;10.30;;;19.20;99.90;;;;;;5093801;28;20028;-71
2021/09/17 09:09:30;;;;;;;15.23;11.02;;;19.30;99.90;;;;;;5089534;28;20032;-72
2021/09/17 09:11:56;;;;;;;17.60;11.48;;;19.40;99.90;;;;;;5087787;28;20388;-72
2021/09/17 09:14:23;;;;;;;15.23;11.10;;;19.60;99.90;;;;;;5085590;28;20347;-71
2021/09/17 09:16:51;;;;;;;10.75;8.68;;;19.30;99.90;;;;;;5090052;28;20061;-70
2021/09/17 09:19:29;;;;;;;16.58;9.98;;;19.60;99.90;;;;;;5084585;28;20027;-72
2021/09/17 09:22:16;;;;;;;12.15;9.85;;;20.20;99.90;;;;;;5071432;28;20021;-72
2021/09/17 09:24:44;;;;;;;16.05;11.27;;;20.60;99.90;;;;;;5077565;28;20384;-71
2021/09/17 09:27:12;;;;;;;13.73;10.23;;;20.20;99.90;;;;;;5086974;28;20567;-73
2021/09/17 09:29:39;;;;;;;17.83;10.45;;;20.30;99.90;;;;;;5087113;28;20489;-71
2021/09/17 09:32:06;;;;;;;15.45;11.63;;;20.60;99.90;;;;;;5087324;28;20123;-71
2021/09/17 09:34:52;;;;;;;20.65;11.90;;;20.60;99.90;;;;;;5087252;28;20068;-72
2021/09/17 09:37:41;;;;;;;12.65;10.20;;;20.50;99.90;;;;;;5085834;28;20051;-71
2021/09/17 09:40:13;;;;;;;15.75;10.13;;;20.90;99.90;;;;;;5086107;28;20055;-71
2021/09/17 09:42:40;;;;;;;12.00;10.10;;;21.10;99.90;;;;;;5083823;28;20024;-71
2021/09/17 09:45:25;;;;;;;12.00;10.48;;;21.20;99.90;;;;;;5085420;28;20043;-71
2021/09/17 09:47:53;;;;;;;15.57;10.48;;;21.10;99.90;;;;;;5086920;28;20383;-72
2021/09/17 09:50:22;;;;;;;14.32;9.70;;;21.10;99.90;;;;;;5091965;28;20048;-72
2021/09/17 09:52:49;;;;;;;17.05;9.82;;;21.10;99.90;;;;;;5086683;28;20072;-70
2021/09/17 09:55:15;;;;;;;13.25;9.68;;;21.20;99.90;;;;;;5085630;28;20032;-71
2021/09/17 09:57:42;;;;;;;13.68;9.90;;;21.30;99.90;;;;;;5088362;28;20102;-70
2021/09/17 10:00:12;;;;;;;17.30;9.98;;;21.40;99.90;;;;;;5088489;28;20059;-71
2021/09/17 10:02:39;;;;;;;16.17;9.98;;;21.50;99.90;;;;;;5089456;28;20032;-71
2021/09/17 10:05:07;;;;;;;19.42;14.30;;;21.40;99.90;;;;;;5088276;28;20040;-71
2021/09/17 10:07:33;;;;;;;14.05;9.13;;;21.50;99.90;;;;;;5098094;28;20134;-70
2021/09/17 10:10:00;;;;;;;18.75;13.80;;;21.70;99.90;;;;;;5094418;28;20039;-72
2021/09/17 10:12:29;;;;;;;14.57;8.98;;;21.90;99.90;;;;;;5086600;28;20031;-72
2021/09/17 10:14:57;;;;;;;11.82;8.32;;;22.20;99.90;;;;;;5088555;28;20454;-71
2021/09/17 10:17:30;;;;;;;11.10;8.40;;;22.30;99.90;;;;;;5087822;28;20203;-71
2021/09/17 10:19:57;;;;;;;11.40;9.50;;;22.30;99.90;;;;;;5087011;28;20028;-71
2021/09/17 10:22:35;;;;;;;10.38;8.10;;;22.40;99.80;;;;;;5086311;28;20679;-69
2021/09/17 10:25:08;;;;;;;11.57;8.38;;;22.60;99.80;;;;;;5086967;28;20059;-71
2021/09/17 10:27:35;;;;;;;15.77;9.35;;;22.90;99.40;;;;;;5084683;28;20507;-70
2021/09/17 10:30:03;;;;;;;10.00;7.93;;;22.70;99.10;;;;;;5089058;28;20445;-69
2021/09/17 10:32:47;;;;;;;19.42;6.70;;;22.70;98.90;;;;;;5087177;28;20031;-66
2021/09/17 10:35:41;;;;;;;13.27;9.32;;;22.70;99.90;;;;;;5090630;28;20148;-66
2021/09/17 10:38:16;;;;;;;9.18;6.97;;;22.70;99.40;;;;;;5105735;28;20028;-67
2021/09/17 10:40:51;;;;;;;12.43;7.75;;;22.80;99.70;;;;;;5113006;28;20329;-66
2021/09/17 10:43:22;;;;;;;15.18;6.95;;;22.60;98.80;;;;;;5112244;28;20024;-66
2021/09/17 10:45:49;;;;;;;24.15;12.60;;;22.40;98.50;;;;;;5107070;28;20051;-66
2021/09/17 10:48:20;;;;;;;10.02;7.88;;;22.30;99.00;;;;;;5081346;28;20024;-66
2021/09/17 10:50:48;;;;;;;14.20;6.30;;;22.40;98.50;;;;;;5072390;28;20024;-66
2021/09/17 10:53:35;;;;;;;9.95;6.20;;;22.30;99.00;;;;;;5071637;28;20028;-66
2021/09/17 10:56:04;;;;;;;8.15;6.07;;;22.30;98.90;;;;;;5071518;28;20080;-66
2021/09/17 10:58:31;;;;;;;7.40;5.88;;;22.30;98.90;;;;;;5071970;28;20429;-66
2021/09/17 11:01:03;;;;;;;9.32;6.10;;;22.30;98.90;;;;;;5070487;28;20029;-66
2021/09/17 11:03:35;;;;;;;9.48;7.78;;;22.40;98.50;;;;;;5071670;28;20025;-66
2021/09/17 11:08:55;;;;;;;7.13;5.60;;;22.30;98.50;;;;;;5110049;28;20092;-67
2021/09/17 11:11:25;;;;;;;8.00;5.90;;;22.20;98.60;;;;;;5109617;28;20108;-66
2021/09/17 11:13:56;;;;;;;7.95;5.45;;;22.00;98.80;;;;;;5110388;28;20027;-65
2021/09/17 11:16:23;;;;;;;8.23;5.22;;;22.00;99.10;;;;;;5110087;28;20040;-66
2021/09/17 11:19:01;;;;;;;10.57;6.03;;;22.00;99.20;;;;;;5111806;28;20027;-73
2021/09/17 11:21:33;;;;;;;12.27;8.05;;;22.10;99.00;;;;;;5111538;28;20118;-71
2021/09/17 11:24:00;;;;;;;16.90;10.18;;;22.00;98.90;;;;;;5110277;28;20055;-73
2021/09/17 11:26:28;;;;;;;11.48;5.88;;;21.80;99.10;;;;;;5111231;28;20443;-72
2021/09/17 11:29:15;;;;;;;8.55;6.80;;;21.80;99.00;;;;;;5110168;28;20118;-72
2021/09/17 11:32:07;;;;;;;12.27;6.93;;;21.80;98.90;;;;;;5093827;28;20375;-71
2021/09/17 11:34:33;;;;;;;12.30;6.78;;;21.80;99.10;;;;;;5099153;28;20036;-72
2021/09/17 11:37:04;;;;;;;10.50;5.78;;;21.70;99.20;;;;;;5078725;28;20031;-72
2021/09/17 11:39:36;;;;;;;10.30;5.68;;;21.70;99.20;;;;;;5108878;28;20027;-71
2021/09/17 11:42:13;;;;;;;8.98;5.93;;;21.60;98.90;;;;;;5107646;28;20035;-73
2021/09/17 11:44:48;;;;;;;12.30;6.25;;;21.30;99.10;;;;;;5094406;28;20032;-74
2021/09/17 11:47:21;;;;;;;9.70;6.30;;;21.40;98.90;;;;;;5089943;28;20104;-71
2021/09/17 11:49:47;;;;;;;14.23;6.20;;;21.20;99.10;;;;;;5090889;28;20322;-71
2021/09/17 11:52:16;;;;;;;11.52;6.50;;;21.20;99.10;;;;;;5093233;28;20084;-71
2021/09/17 11:54:54;;;;;;;7.35;5.90;;;21.20;99.20;;;;;;5092447;28;20024;-74
2021/09/17 11:57:20;;;;;;;17.48;8.63;;;21.20;99.70;;;;;;5090492;28;20157;-72
2021/09/17 11:59:46;;;;;;;8.95;4.82;;;21.30;99.50;;;;;;5091537;28;20115;-72
2021/09/17 12:02:15;;;;;;;10.55;5.95;;;21.30;99.50;;;;;;5093247;28;20046;-72
2021/09/17 12:04:43;;;;;;;10.27;6.15;;;21.30;99.30;;;;;;5090803;28;20540;-72
2021/09/17 12:07:12;;;;;;;8.88;4.72;;;21.30;99.80;;;;;;5090372;28;20036;-72
2021/09/17 12:09:38;;;;;;;8.38;6.68;;;21.20;99.30;;;;;;5091611;28;20374;-72
2021/09/17 12:12:04;;;;;;;11.52;4.95;;;21.20;99.40;;;;;;5091226;28;20024;-71
2021/09/17 12:14:30;;;;;;;8.57;5.43;;;21.20;99.30;;;;;;5091271;28;20022;-71
2021/09/17 12:17:04;;;;;;;7.97;6.25;;;21.10;99.60;;;;;;5091294;28;20087;-71
2021/09/17 12:19:30;;;;;;;9.52;5.20;;;21.10;99.90;;;;;;5113500;27;20081;-72
2021/09/17 12:22:01;;;;;;;9.25;5.78;;;21.20;99.90;;;;;;5096574;28;20069;-71
2021/09/17 12:24:27;;;;;;;10.60;5.82;;;21.20;99.90;;;;;;5103317;28;20061;-72
2021/09/17 12:26:59;;;;;;;9.27;6.78;;;21.20;99.90;;;;;;5086809;28;20047;-73
2021/09/17 12:29:25;;;;;;;8.20;5.55;;;21.10;99.80;;;;;;5098385;28;20020;-72
2021/09/17 12:31:52;;;;;;;8.23;4.78;;;21.10;99.80;;;;;;5079555;28;20024;-71
2021/09/17 12:34:21;;;;;;;8.75;4.72;;;21.10;99.80;;;;;;5099642;28;20110;-71
2021/09/17 12:36:53;;;;;;;6.63;4.32;;;21.30;99.60;;;;;;5091380;28;20341;-73
2021/09/17 12:39:22;;;;;;;5.03;4.22;;;21.30;99.60;;;;;;5108481;28;20490;-73
2021/09/17 12:42:08;;;;;;;8.43;5.78;;;21.50;99.40;;;;;;5098959;28;20024;-73
2021/09/17 12:44:44;;;;;;;6.40;4.80;;;21.40;99.70;;;;;;5090863;28;20039;-72